Time;durP1;ratioP1;P1;durP2;ratioP2;P2;SDS_P1;SDS_P2;PMS_P1;PMS_P2;Temp;Humidity;BMP_temperature;BMP_pressure;BME280_temperature;BME280_humidity;BME280_pressure;Samples;Min_cycle;Max_cycle;Signal;HPM_P1;HPM_P2
2024/03/08 00:02:16;;;;;;;33.73;24.50;;;;;;;;;;5083953;28;20569;-68
2024/03/08 00:04:42;;;;;;;27.57;22.93;;;;;;;;;;5078039;28;20440;-68
2024/03/08 00:07:10;;;;;;;32.20;24.90;;;;;;;;;;5078031;28;20496;-67
2024/03/08 00:09:37;;;;;;;32.57;24.23;;;;;;;;;;5083665;28;20545;-69
2024/03/08 00:12:04;;;;;;;31.63;23.27;;;;;;;;;;5079380;28;20451;-68
2024/03/08 00:14:30;;;;;;;27.63;22.70;;;;;;;;;;5078035;28;20470;-69
2024/03/08 00:16:56;;;;;;;31.37;23.00;;;;;;;;;;5078973;28;20447;-68
2024/03/08 00:19:23;;;;;;;31.20;24.20;;;;;;;;;;5081158;28;20447;-67
2024/03/08 00:21:49;;;;;;;36.00;24.73;;;;;;;;;;5073355;28;20566;-67
2024/03/08 00:24:17;;;;;;;35.83;26.00;;;;;;;;;;5080313;28;20514;-66
2024/03/08 00:26:43;;;;;;;33.37;24.03;;;;;;;;;;5078760;28;20459;-68
2024/03/08 00:29:10;;;;;;;36.97;25.87;;;;;;;;;;5081830;28;20476;-67
2024/03/08 00:31:37;;;;;;;32.30;24.57;;;;;;;;;;5084469;28;20517;-67
2024/03/08 00:34:03;;;;;;;37.83;26.73;;;;;;;;;;5082376;28;20459;-68
2024/03/08 00:36:30;;;;;;;31.30;24.90;;;;;;;;;;5081560;28;20482;-67
2024/03/08 00:38:56;;;;;;;33.00;26.30;;;;;;;;;;5081084;28;20467;-68
2024/03/08 00:41:26;;;;;;;37.77;28.50;;;;;;;;;;5085558;28;20483;-67
2024/03/08 00:43:52;;;;;;;37.30;27.23;;;;;;;;;;5080750;28;20447;-68
2024/03/08 00:46:19;;;;;;;35.37;26.30;;;;;;;;;;5086106;28;20463;-67
2024/03/08 00:48:45;;;;;;;35.80;26.67;;;;;;;;;;5083998;28;20557;-68
2024/03/08 00:51:11;;;;;;;42.57;28.70;;;;;;;;;;5088813;28;20478;-68
2024/03/08 00:53:38;;;;;;;34.77;27.17;;;;;;;;;;5082394;28;20517;-69
2024/03/08 00:56:05;;;;;;;34.60;27.93;;;;;;;;;;5078815;28;21211;-67
2024/03/08 00:58:33;;;;;;;32.40;26.00;;;;;;;;;;5081015;28;20483;-68
2024/03/08 01:00:59;;;;;;;35.13;26.20;;;;;;;;;;5079536;28;21081;-69
2024/03/08 01:03:26;;;;;;;36.40;27.00;;;;;;;;;;5080653;28;20452;-67
2024/03/08 01:05:52;;;;;;;36.37;28.30;;;;;;;;;;5083805;28;20464;-67
2024/03/08 01:08:19;;;;;;;35.27;26.03;;;;;;;;;;5079456;28;20498;-66
2024/03/08 01:10:45;;;;;;;42.93;27.60;;;;;;;;;;5081165;28;20484;-67
2024/03/08 01:13:12;;;;;;;38.50;28.63;;;;;;;;;;5080036;28;20460;-67
2024/03/08 01:15:41;;;;;;;39.43;27.83;;;;;;;;;;5080142;28;20540;-67
2024/03/08 01:18:07;;;;;;;37.60;28.07;;;;;;;;;;5083214;28;20462;-67
2024/03/08 01:20:34;;;;;;;42.33;28.60;;;;;;;;;;5081584;28;20468;-67
2024/03/08 01:23:00;;;;;;;35.77;26.50;;;;;;;;;;5080299;28;20828;-67
2024/03/08 01:25:27;;;;;;;32.43;25.17;;;;;;;;;;5079660;28;20448;-67
2024/03/08 01:27:54;;;;;;;36.37;26.10;;;;;;;;;;5083236;28;20472;-67
2024/03/08 01:30:20;;;;;;;38.80;28.63;;;;;;;;;;5082070;28;21033;-67
2024/03/08 01:32:48;;;;;;;37.10;28.00;;;;;;;;;;5083110;28;20467;-67
2024/03/08 01:35:15;;;;;;;37.10;26.97;;;;;;;;;;5079566;28;20476;-66
2024/03/08 01:37:41;;;;;;;38.23;28.60;;;;;;;;;;5082388;28;20571;-68
2024/03/08 01:40:09;;;;;;;37.27;28.13;;;;;;;;;;5085660;28;20459;-66
2024/03/08 01:42:37;;;;;;;43.10;34.00;;;;;;;;;;5072549;28;20503;-67
2024/03/08 01:45:05;;;;;;;37.03;31.50;;;;;;;;;;5074379;28;20536;-69
2024/03/08 01:47:32;;;;;;;44.40;32.23;;;;;;;;;;5077149;28;20452;-67
2024/03/08 01:50:01;;;;;;;42.47;34.47;;;;;;;;;;5087748;28;20460;-68
2024/03/08 01:52:27;;;;;;;43.20;33.70;;;;;;;;;;5076143;28;20460;-67
2024/03/08 01:54:54;;;;;;;42.63;33.23;;;;;;;;;;5086167;28;20486;-68
2024/03/08 01:57:20;;;;;;;42.97;33.90;;;;;;;;;;5080316;28;20543;-69
2024/03/08 01:59:47;;;;;;;42.97;34.80;;;;;;;;;;5086466;28;20483;-69
2024/03/08 02:02:15;;;;;;;43.90;36.60;;;;;;;;;;5078699;28;20487;-68
2024/03/08 02:04:42;;;;;;;43.93;35.53;;;;;;;;;;5078771;28;20475;-69
2024/03/08 02:07:10;;;;;;;48.87;34.53;;;;;;;;;;5082757;28;20513;-68
2024/03/08 02:09:36;;;;;;;45.40;34.17;;;;;;;;;;5082605;28;20944;-68
2024/03/08 02:12:03;;;;;;;48.30;34.73;;;;;;;;;;5082785;28;20498;-67
2024/03/08 02:14:31;;;;;;;48.67;32.73;;;;;;;;;;5082187;28;20970;-69
2024/03/08 02:17:01;;;;;;;39.20;30.00;;;;;;;;;;5080894;28;20756;-69
2024/03/08 02:19:27;;;;;;;47.90;31.50;;;;;;;;;;5080616;28;20451;-69
2024/03/08 02:21:56;;;;;;;41.50;30.17;;;;;;;;;;5079456;28;20570;-69
2024/03/08 02:24:23;;;;;;;44.23;30.27;;;;;;;;;;5083295;28;20481;-69
2024/03/08 02:26:49;;;;;;;41.83;29.30;;;;;;;;;;5074638;28;21139;-69
2024/03/08 02:29:16;;;;;;;46.80;31.20;;;;;;;;;;5080217;28;20459;-69
2024/03/08 02:31:42;;;;;;;38.20;29.17;;;;;;;;;;5081675;28;20476;-68
2024/03/08 02:34:09;;;;;;;39.77;30.37;;;;;;;;;;5079774;28;20555;-69
2024/03/08 02:36:35;;;;;;;43.50;30.80;;;;;;;;;;5081126;28;20468;-69
2024/03/08 02:39:05;;;;;;;44.07;31.33;;;;;;;;;;5082449;28;20503;-69
2024/03/08 02:41:32;;;;;;;39.40;29.60;;;;;;;;;;5086216;28;20488;-69
2024/03/08 02:43:59;;;;;;;38.33;29.43;;;;;;;;;;5072513;28;20449;-68
2024/03/08 02:46:26;;;;;;;36.20;28.83;;;;;;;;;;5081005;28;21466;-69
2024/03/08 02:48:52;;;;;;;35.23;28.73;;;;;;;;;;5073986;28;20507;-68
2024/03/08 02:51:19;;;;;;;40.80;30.07;;;;;;;;;;5077108;28;20479;-69
2024/03/08 02:53:48;;;;;;;43.03;30.50;;;;;;;;;;5078430;28;20456;-68
2024/03/08 02:56:16;;;;;;;39.77;28.87;;;;;;;;;;5083940;28;20945;-68
2024/03/08 02:58:43;;;;;;;41.63;30.50;;;;;;;;;;5064243;28;20480;-68
2024/03/08 03:01:10;;;;;;;39.30;29.90;;;;;;;;;;5059991;28;20456;-69
2024/03/08 03:03:36;;;;;;;39.23;29.53;;;;;;;;;;5057923;28;20459;-68
2024/03/08 03:06:03;;;;;;;37.63;29.47;;;;;;;;;;5053672;28;20457;-69
2024/03/08 03:08:29;;;;;;;42.50;28.53;;;;;;;;;;5060776;28;20448;-69
2024/03/08 03:10:56;;;;;;;41.27;31.40;;;;;;;;;;5057212;28;20503;-67
2024/03/08 03:13:24;;;;;;;40.77;29.50;;;;;;;;;;5057885;28;20908;-69
2024/03/08 03:15:51;;;;;;;37.03;29.63;;;;;;;;;;5065691;28;20443;-68
2024/03/08 03:18:21;;;;;;;42.23;29.53;;;;;;;;;;5058423;28;20457;-69
2024/03/08 03:20:47;;;;;;;38.80;29.53;;;;;;;;;;5058089;28;20494;-69
2024/03/08 03:23:14;;;;;;;38.73;29.70;;;;;;;;;;5064534;28;20514;-68
2024/03/08 03:25:41;;;;;;;39.77;30.40;;;;;;;;;;5058644;28;20676;-69
2024/03/08 03:28:10;;;;;;;36.40;27.27;;;;;;;;;;5063777;28;20502;-70
2024/03/08 03:30:39;;;;;;;39.87;28.30;;;;;;;;;;5057742;28;20969;-69
2024/03/08 03:33:06;;;;;;;40.47;29.50;;;;;;;;;;5051112;28;20446;-69
2024/03/08 03:35:34;;;;;;;41.80;30.73;;;;;;;;;;5058140;28;20489;-68
2024/03/08 03:38:06;;;;;;;48.10;30.90;;;;;;;;;;5056874;28;20514;-68
2024/03/08 03:40:32;;;;;;;38.43;30.10;;;;;;;;;;5062872;28;20510;-66
2024/03/08 03:42:59;;;;;;;42.07;30.97;;;;;;;;;;5070914;28;21059;-68
2024/03/08 03:45:25;;;;;;;46.03;31.03;;;;;;;;;;5055964;28;20464;-69
2024/03/08 03:47:53;;;;;;;38.70;29.40;;;;;;;;;;5062428;28;20464;-67
2024/03/08 03:50:20;;;;;;;39.20;30.00;;;;;;;;;;5062868;28;20502;-69
2024/03/08 03:52:46;;;;;;;41.63;30.70;;;;;;;;;;5057971;28;20534;-69
2024/03/08 03:55:13;;;;;;;39.73;29.10;;;;;;;;;;5060721;28;20452;-69
2024/03/08 03:57:39;;;;;;;39.90;27.77;;;;;;;;;;5074599;28;20515;-67
2024/03/08 04:00:09;;;;;;;38.60;28.47;;;;;;;;;;5083178;28;20484;-68
2024/03/08 04:02:36;;;;;;;42.10;30.10;;;;;;;;;;5080580;28;20522;-68
2024/03/08 04:05:04;;;;;;;35.37;27.47;;;;;;;;;;5081499;28;20486;-68
2024/03/08 04:07:30;;;;;;;40.80;28.73;;;;;;;;;;5082491;28;20515;-68
2024/03/08 04:09:57;;;;;;;41.00;29.43;;;;;;;;;;5086735;28;20478;-68
2024/03/08 04:12:23;;;;;;;37.93;29.43;;;;;;;;;;5081041;28;20479;-68
2024/03/08 04:14:49;;;;;;;43.63;30.33;;;;;;;;;;5077897;28;20452;-69
2024/03/08 04:17:16;;;;;;;40.93;31.00;;;;;;;;;;5082118;28;20813;-68
2024/03/08 04:19:43;;;;;;;42.93;30.80;;;;;;;;;;5083152;28;20466;-67
2024/03/08 04:22:12;;;;;;;38.67;30.20;;;;;;;;;;5082404;28;20519;-67
2024/03/08 04:24:39;;;;;;;40.10;29.63;;;;;;;;;;5082107;28;20476;-68
2024/03/08 04:27:05;;;;;;;42.87;31.17;;;;;;;;;;5080598;28;20443;-68
2024/03/08 04:29:32;;;;;;;42.37;30.93;;;;;;;;;;5085800;28;20447;-68
2024/03/08 04:31:59;;;;;;;45.03;29.53;;;;;;;;;;5075073;28;20221;-66
2024/03/08 04:34:25;;;;;;;43.97;33.00;;;;;;;;;;5079089;28;20473;-67
2024/03/08 04:36:51;;;;;;;40.27;31.33;;;;;;;;;;5080604;28;20467;-67
2024/03/08 04:39:19;;;;;;;45.87;30.37;;;;;;;;;;5081088;28;20448;-67
2024/03/08 04:41:47;;;;;;;39.43;29.37;;;;;;;;;;5081803;28;20999;-65
2024/03/08 04:44:14;;;;;;;46.03;31.80;;;;;;;;;;5085354;28;20487;-68
2024/03/08 04:46:40;;;;;;;43.33;30.40;;;;;;;;;;5082285;28;20454;-66
2024/03/08 04:49:07;;;;;;;41.20;30.93;;;;;;;;;;5088528;28;20456;-67
2024/03/08 04:51:33;;;;;;;44.73;31.93;;;;;;;;;;5082501;28;20450;-67
2024/03/08 04:54:00;;;;;;;43.83;29.43;;;;;;;;;;5075148;28;20520;-68
2024/03/08 04:56:27;;;;;;;43.43;32.30;;;;;;;;;;5079696;28;20918;-67
2024/03/08 04:58:54;;;;;;;41.53;31.43;;;;;;;;;;5082412;28;20546;-68
2024/03/08 05:01:20;;;;;;;44.37;31.27;;;;;;;;;;5080491;28;20483;-67
2024/03/08 05:03:49;;;;;;;41.03;29.93;;;;;;;;;;5077403;28;20500;-67
2024/03/08 05:06:16;;;;;;;45.07;32.43;;;;;;;;;;5080323;28;20452;-67
2024/03/08 05:08:42;;;;;;;46.03;30.70;;;;;;;;;;5079524;28;20551;-68
2024/03/08 05:11:09;;;;;;;41.70;31.10;;;;;;;;;;5078942;28;20484;-68
2024/03/08 05:13:37;;;;;;;49.17;31.73;;;;;;;;;;5080393;28;20971;-68
2024/03/08 05:16:04;;;;;;;47.23;31.50;;;;;;;;;;5077419;28;21030;-69
2024/03/08 05:18:32;;;;;;;46.17;31.97;;;;;;;;;;5076791;28;20473;-68
2024/03/08 05:20:58;;;;;;;42.17;31.70;;;;;;;;;;5087214;28;20551;-68
2024/03/08 05:23:24;;;;;;;36.60;28.97;;;;;;;;;;5080866;28;20504;-67
2024/03/08 05:25:51;;;;;;;43.37;29.70;;;;;;;;;;5080015;28;20478;-67
2024/03/08 05:28:17;;;;;;;40.10;29.63;;;;;;;;;;5081862;28;20448;-67
2024/03/08 05:30:45;;;;;;;44.40;29.87;;;;;;;;;;5081576;28;20491;-68
2024/03/08 05:33:14;;;;;;;47.73;31.03;;;;;;;;;;5079446;28;20471;-67
2024/03/08 05:35:40;;;;;;;40.40;29.93;;;;;;;;;;5078093;28;20535;-68
2024/03/08 05:38:07;;;;;;;44.93;30.23;;;;;;;;;;5080132;28;20487;-69
2024/03/08 05:40:34;;;;;;;50.47;32.40;;;;;;;;;;5080228;28;20456;-68
2024/03/08 05:43:00;;;;;;;43.60;31.43;;;;;;;;;;5079429;28;20976;-68
2024/03/08 05:45:27;;;;;;;44.17;32.73;;;;;;;;;;5084953;28;20447;-69
2024/03/08 05:47:55;;;;;;;45.83;33.20;;;;;;;;;;5085025;28;21007;-69
2024/03/08 05:50:22;;;;;;;41.60;31.27;;;;;;;;;;5076348;28;20496;-69
2024/03/08 05:52:49;;;;;;;48.80;38.37;;;;;;;;;;5079047;28;20488;-68
2024/03/08 05:55:16;;;;;;;54.10;37.77;;;;;;;;;;5075045;28;20456;-69
2024/03/08 05:57:42;;;;;;;50.47;37.10;;;;;;;;;;5073372;28;20496;-66
2024/03/08 06:00:10;;;;;;;51.00;36.90;;;;;;;;;;5079331;28;20523;-68
2024/03/08 06:02:40;;;;;;;47.90;33.97;;;;;;;;;;5079042;28;20496;-68
2024/03/08 06:05:08;;;;;;;48.20;34.33;;;;;;;;;;5073073;28;20536;-68
2024/03/08 06:07:35;;;;;;;50.17;32.53;;;;;;;;;;5078371;28;20455;-68
2024/03/08 06:10:01;;;;;;;42.80;32.70;;;;;;;;;;5082156;28;20478;-66
2024/03/08 06:12:32;;;;;;;50.70;35.53;;;;;;;;;;5074277;28;20878;-67
2024/03/08 06:14:58;;;;;;;54.40;33.70;;;;;;;;;;5079210;28;20444;-67
2024/03/08 06:17:26;;;;;;;56.73;33.80;;;;;;;;;;5078777;28;21009;-68
2024/03/08 06:19:52;;;;;;;50.63;34.03;;;;;;;;;;5079331;28;20486;-68
2024/03/08 06:22:20;;;;;;;50.67;34.43;;;;;;;;;;5072630;28;20488;-68
2024/03/08 06:24:47;;;;;;;50.10;32.30;;;;;;;;;;5074223;28;20519;-66
2024/03/08 06:27:13;;;;;;;47.63;34.60;;;;;;;;;;5076134;28;20579;-68
2024/03/08 06:29:40;;;;;;;48.80;33.30;;;;;;;;;;5077304;28;20458;-67
2024/03/08 06:32:07;;;;;;;43.43;33.27;;;;;;;;;;5074687;28;20453;-67
2024/03/08 06:34:34;;;;;;;53.57;34.90;;;;;;;;;;5078862;28;20486;-68
2024/03/08 06:37:01;;;;;;;48.90;34.23;;;;;;;;;;5077962;28;20456;-68
2024/03/08 06:39:31;;;;;;;48.37;31.60;;;;;;;;;;5073143;28;20444;-68
2024/03/08 06:41:58;;;;;;;48.10;33.13;;;;;;;;;;5077418;28;20467;-68
2024/03/08 06:44:25;;;;;;;48.70;33.37;;;;;;;;;;5074062;28;20515;-68
2024/03/08 06:46:51;;;;;;;43.47;32.60;;;;;;;;;;5077000;28;20487;-69
2024/03/08 06:49:17;;;;;;;37.50;30.80;;;;;;;;;;5078154;28;20512;-69
2024/03/08 06:51:44;;;;;;;38.07;30.13;;;;;;;;;;5074368;28;20483;-69
2024/03/08 06:54:10;;;;;;;41.43;31.07;;;;;;;;;;5077861;28;21036;-68
2024/03/08 06:56:38;;;;;;;32.20;28.13;;;;;;;;;;5077287;28;21188;-67
2024/03/08 06:59:05;;;;;;;39.67;29.40;;;;;;;;;;5078397;28;20451;-69
2024/03/08 07:01:32;;;;;;;40.33;30.90;;;;;;;;;;5077671;28;20459;-68
2024/03/08 07:03:58;;;;;;;38.60;31.40;;;;;;;;;;5077952;28;20537;-67
2024/03/08 07:06:24;;;;;;;36.67;31.03;;;;;;;;;;5078383;28;20440;-68
2024/03/08 07:08:51;;;;;;;34.23;28.80;;;;;;;;;;5073784;28;20470;-68
2024/03/08 07:11:18;;;;;;;40.30;30.30;;;;;;;;;;5078049;28;20460;-69
2024/03/08 07:13:46;;;;;;;37.30;29.03;;;;;;;;;;5073873;28;20478;-69
2024/03/08 07:16:12;;;;;;;36.53;26.90;;;;;;;;;;5077005;28;20479;-69
2024/03/08 07:18:39;;;;;;;38.47;27.57;;;;;;;;;;5077978;28;20440;-67
2024/03/08 07:21:06;;;;;;;32.00;27.83;;;;;;;;;;5075989;28;20509;-68
2024/03/08 07:24:02;;;;;;;33.10;28.83;;;;;;;;;;5080520;28;20518;-68
2024/03/08 07:26:29;;;;;;;37.17;29.33;;;;;;;;;;5075935;28;20447;-69
2024/03/08 07:28:57;;;;;;;37.03;29.80;;;;;;;;;;5076483;28;20476;-67
2024/03/08 07:31:31;;;;;;;32.77;29.27;;;;;;;;;;5076754;28;20524;-68
2024/03/08 07:33:58;;;;;;;33.57;28.50;;;;;;;;;;5076145;28;20439;-69
2024/03/08 07:36:25;;;;;;;33.43;28.63;;;;;;;;;;5076009;28;20459;-69
2024/03/08 07:38:51;;;;;;;33.80;29.23;;;;;;;;;;5076428;28;20487;-68
2024/03/08 07:41:18;;;;;;;35.57;28.90;;;;;;;;;;5076680;28;20480;-68
2024/03/08 07:43:44;;;;;;;35.70;29.53;;;;;;;;;;5074943;28;20506;-68
2024/03/08 07:46:13;;;;;;;38.17;29.53;;;;;;;;;;5079090;28;20444;-69
2024/03/08 07:48:39;;;;;;;33.67;27.90;;;;;;;;;;5077559;28;20459;-68
2024/03/08 07:51:09;;;;;;;33.87;29.13;;;;;;;;;;5077782;28;20440;-69
2024/03/08 07:53:35;;;;;;;39.33;29.63;;;;;;;;;;5073845;28;20452;-68
2024/03/08 07:56:02;;;;;;;37.20;30.77;;;;;;;;;;5072886;28;20481;-66
2024/03/08 07:58:28;;;;;;;35.17;28.90;;;;;;;;;;5076078;28;20515;-67
2024/03/08 08:00:55;;;;;;;36.43;29.13;;;;;;;;;;5076914;28;20464;-69
2024/03/08 08:03:23;;;;;;;34.77;30.97;;;;;;;;;;5077406;28;20480;-69
2024/03/08 08:05:50;;;;;;;35.10;28.60;;;;;;;;;;5077072;28;20444;-69
2024/03/08 08:08:16;;;;;;;33.40;29.83;;;;;;;;;;5077400;28;20583;-68
2024/03/08 08:10:42;;;;;;;31.70;27.90;;;;;;;;;;5074505;28;20479;-68
2024/03/08 08:13:09;;;;;;;34.07;29.87;;;;;;;;;;5075111;28;20480;-68
2024/03/08 08:15:35;;;;;;;36.40;27.17;;;;;;;;;;5080574;28;21083;-68
2024/03/08 08:18:02;;;;;;;33.63;27.83;;;;;;;;;;5077279;28;20444;-67
2024/03/08 08:20:31;;;;;;;37.97;29.70;;;;;;;;;;5068454;28;20456;-67
2024/03/08 08:22:58;;;;;;;35.10;30.27;;;;;;;;;;5078172;28;20498;-67
2024/03/08 08:25:25;;;;;;;34.97;27.40;;;;;;;;;;5085162;28;20448;-67
2024/03/08 08:27:53;;;;;;;33.13;29.53;;;;;;;;;;5079358;28;20456;-67
2024/03/08 08:30:20;;;;;;;37.73;29.77;;;;;;;;;;5080548;28;20451;-65
2024/03/08 08:32:48;;;;;;;36.00;29.80;;;;;;;;;;5085127;28;20465;-67
2024/03/08 08:35:15;;;;;;;38.63;29.40;;;;;;;;;;5083062;28;20486;-68
2024/03/08 08:37:44;;;;;;;35.70;29.57;;;;;;;;;;5078896;28;20490;-67
2024/03/08 08:40:14;;;;;;;36.50;30.30;;;;;;;;;;5079958;28;20436;-68
2024/03/08 08:42:40;;;;;;;37.17;29.07;;;;;;;;;;5074571;28;20468;-68
2024/03/08 08:45:09;;;;;;;32.73;28.93;;;;;;;;;;5081429;28;21157;-66
2024/03/08 08:47:35;;;;;;;38.17;30.10;;;;;;;;;;5081777;28;20523;-66
2024/03/08 08:50:03;;;;;;;35.63;30.00;;;;;;;;;;5086872;28;20478;-68
2024/03/08 08:52:30;;;;;;;35.50;30.73;;;;;;;;;;5076516;28;20456;-67
2024/03/08 08:54:58;;;;;;;34.00;29.20;;;;;;;;;;5078854;28;20455;-68
2024/03/08 08:57:24;;;;;;;36.00;30.50;;;;;;;;;;5072217;28;20519;-68
2024/03/08 08:59:51;;;;;;;36.73;28.77;;;;;;;;;;5079819;28;20491;-68
2024/03/08 09:02:20;;;;;;;34.27;28.80;;;;;;;;;;5080208;28;20525;-68
2024/03/08 09:04:47;;;;;;;38.27;30.63;;;;;;;;;;5079644;28;20486;-68
2024/03/08 09:07:14;;;;;;;32.70;28.97;;;;;;;;;;5079439;28;20489;-68
2024/03/08 09:09:41;;;;;;;33.37;29.33;;;;;;;;;;5079822;28;20452;-67
2024/03/08 09:12:11;;;;;;;35.67;27.90;;;;;;;;;;5081750;28;20484;-67
2024/03/08 09:14:38;;;;;;;34.70;30.40;;;;;;;;;;5069701;28;20460;-67
2024/03/08 09:17:04;;;;;;;33.53;27.67;;;;;;;;;;5080657;28;20985;-68
2024/03/08 09:19:32;;;;;;;32.50;28.67;;;;;;;;;;5074632;28;20486;-66
2024/03/08 09:21:58;;;;;;;30.40;27.10;;;;;;;;;;5076458;28;20460;-69
2024/03/08 09:24:25;;;;;;;32.13;27.43;;;;;;;;;;5080071;28;20522;-66
2024/03/08 09:26:52;;;;;;;34.10;27.63;;;;;;;;;;5072495;28;20523;-65
2024/03/08 09:29:20;;;;;;;32.63;28.53;;;;;;;;;;5081152;28;20455;-67
2024/03/08 09:31:47;;;;;;;36.43;30.10;;;;;;;;;;5080737;28;20459;-66
2024/03/08 09:34:13;;;;;;;32.83;27.77;;;;;;;;;;5075480;28;20467;-66
2024/03/08 09:36:41;;;;;;;34.07;30.33;;;;;;;;;;5076609;28;20490;-66
2024/03/08 09:39:08;;;;;;;31.87;27.97;;;;;;;;;;5082939;28;20462;-67
2024/03/08 09:41:34;;;;;;;30.17;26.87;;;;;;;;;;5079076;28;20518;-66
2024/03/08 09:44:01;;;;;;;32.73;28.47;;;;;;;;;;5078517;28;20524;-69
2024/03/08 09:46:30;;;;;;;32.10;28.43;;;;;;;;;;5070123;28;20448;-69
2024/03/08 09:48:56;;;;;;;38.50;28.97;;;;;;;;;;5078822;28;20479;-68
2024/03/08 09:51:25;;;;;;;29.80;26.60;;;;;;;;;;5077608;28;20467;-67
2024/03/08 09:53:53;;;;;;;30.57;27.20;;;;;;;;;;5078981;28;20498;-67
2024/03/08 09:56:20;;;;;;;30.03;26.50;;;;;;;;;;5080657;28;20480;-67
2024/03/08 09:59:14;;;;;;;34.80;28.07;;;;;;;;;;5078988;28;20499;-68
2024/03/08 10:01:42;;;;;;;32.33;27.57;;;;;;;;;;5073045;28;20867;-63
2024/03/08 10:04:10;;;;;;;32.13;27.40;;;;;;;;;;5075831;28;20582;-70
2024/03/08 10:06:36;;;;;;;33.10;27.00;;;;;;;;;;5076650;28;20488;-72
2024/03/08 10:09:05;;;;;;;31.13;27.73;;;;;;;;;;5077249;28;20456;-72
2024/03/08 10:11:32;;;;;;;27.47;24.57;;;;;;;;;;5077487;28;20516;-72
2024/03/08 10:14:00;;;;;;;33.93;27.60;;;;;;;;;;5080458;28;20459;-73
2024/03/08 10:16:27;;;;;;;33.20;26.40;;;;;;;;;;5077393;28;20869;-74
2024/03/08 10:18:54;;;;;;;30.63;27.33;;;;;;;;;;5077965;28;20513;-73
2024/03/08 10:21:21;;;;;;;29.20;25.97;;;;;;;;;;5074962;28;20479;-74
2024/03/08 10:23:48;;;;;;;30.67;27.07;;;;;;;;;;5077883;28;20484;-74
2024/03/08 10:26:15;;;;;;;28.77;25.77;;;;;;;;;;5077786;28;20547;-75
2024/03/08 10:28:42;;;;;;;28.80;24.77;;;;;;;;;;5071747;28;20869;-74
2024/03/08 10:31:09;;;;;;;28.40;25.30;;;;;;;;;;5074830;28;20453;-76
2024/03/08 10:33:37;;;;;;;29.43;23.60;;;;;;;;;;5072267;28;20504;-74
2024/03/08 10:36:06;;;;;;;29.77;25.30;;;;;;;;;;5075802;28;20486;-75
2024/03/08 10:38:33;;;;;;;28.37;25.40;;;;;;;;;;5077352;28;20456;-74
2024/03/08 10:41:01;;;;;;;29.40;23.90;;;;;;;;;;5068770;28;20456;-74
2024/03/08 10:43:29;;;;;;;29.43;25.43;;;;;;;;;;5078298;28;20487;-74
2024/03/08 10:46:01;;;;;;;29.70;24.87;;;;;;;;;;5074675;28;20444;-74
2024/03/08 10:48:31;;;;;;;31.63;25.00;;;;;;;;;;5074169;28;20462;-74
2024/03/08 10:50:58;;;;;;;28.53;24.40;;;;;;;;;;5070756;28;20518;-75
2024/03/08 10:53:27;;;;;;;25.93;21.70;;;;;;;;;;5073945;28;20491;-75
2024/03/08 10:55:54;;;;;;;26.77;23.90;;;;;;;;;;5077310;28;20491;-75
2024/03/08 10:58:21;;;;;;;27.70;24.37;;;;;;;;;;5076192;28;20488;-68
2024/03/08 11:00:49;;;;;;;25.93;23.00;;;;;;;;;;5076834;28;20842;-65
2024/03/08 11:03:31;;;;;;;26.67;23.80;;;;;;;;;;5076298;28;20493;-66
2024/03/08 11:05:57;;;;;;;28.70;24.27;;;;;;;;;;5075509;28;20467;-71
2024/03/08 11:08:23;;;;;;;28.93;24.93;;;;;;;;;;5068121;28;21318;-71
2024/03/08 11:10:53;;;;;;;26.63;23.67;;;;;;;;;;5074494;28;20449;-70
2024/03/08 11:13:40;;;;;;;26.77;23.93;;;;;;;;;;5074796;28;21023;-71
2024/03/08 11:16:09;;;;;;;28.80;23.93;;;;;;;;;;5067294;28;20480;-69
2024/03/08 11:18:37;;;;;;;26.90;23.37;;;;;;;;;;5076075;28;20967;-70
2024/03/08 11:21:05;;;;;;;27.60;24.57;;;;;;;;;;5076612;28;20490;-68
2024/03/08 11:23:33;;;;;;;29.57;24.80;;;;;;;;;;5073053;28;20452;-66
2024/03/08 11:26:01;;;;;;;29.13;25.50;;;;;;;;;;5072894;28;20443;-66
2024/03/08 11:28:27;;;;;;;30.27;26.70;;;;;;;;;;5076377;28;20483;-66
2024/03/08 11:31:13;;;;;;;28.60;25.23;;;;;;;;;;5074282;28;20440;-66
2024/03/08 11:33:43;;;;;;;29.90;26.10;;;;;;;;;;5075400;28;20990;-68
2024/03/08 11:36:16;;;;;;;31.03;25.10;;;;;;;;;;5074162;28;20452;-69
2024/03/08 11:38:43;;;;;;;30.87;25.47;;;;;;;;;;5075918;28;20529;-67
2024/03/08 11:41:14;;;;;;;32.03;25.47;;;;;;;;;;5074924;28;20448;-68
2024/03/08 11:43:41;;;;;;;30.33;26.50;;;;;;;;;;5076488;28;20512;-64
2024/03/08 11:46:12;;;;;;;30.20;25.73;;;;;;;;;;5075864;28;20448;-67
2024/03/08 11:48:38;;;;;;;27.60;24.70;;;;;;;;;;5072426;28;20481;-70
2024/03/08 11:51:05;;;;;;;28.40;23.90;;;;;;;;;;5075260;28;20545;-68
2024/03/08 11:53:32;;;;;;;28.03;24.03;;;;;;;;;;5068517;28;21066;-68
2024/03/08 11:56:06;;;;;;;27.50;23.27;;;;;;;;;;5074054;28;20988;-69
2024/03/08 11:58:36;;;;;;;28.77;23.77;;;;;;;;;;5071561;28;21028;-68
2024/03/08 12:01:04;;;;;;;26.40;23.70;;;;;;;;;;5085031;28;20456;-67
2024/03/08 12:03:33;;;;;;;25.97;23.13;;;;;;;;;;5069240;28;20456;-68
2024/03/08 12:06:00;;;;;;;28.57;22.27;;;;;;;;;;5080793;28;20491;-68
2024/03/08 12:08:28;;;;;;;26.80;22.97;;;;;;;;;;5078089;28;20476;-68
2024/03/08 12:10:59;;;;;;;29.60;24.70;;;;;;;;;;5079158;28;20464;-67
2024/03/08 12:13:25;;;;;;;27.70;24.10;;;;;;;;;;5077641;28;20471;-68
2024/03/08 12:15:53;;;;;;;25.70;23.00;;;;;;;;;;5080004;28;20907;-68
2024/03/08 12:18:20;;;;;;;22.80;20.40;;;;;;;;;;5078820;28;20468;-67
2024/03/08 12:20:49;;;;;;;25.83;22.20;;;;;;;;;;5079036;28;20451;-67
2024/03/08 12:23:16;;;;;;;23.97;21.47;;;;;;;;;;5077598;28;20972;-68
2024/03/08 12:25:42;;;;;;;26.27;22.10;;;;;;;;;;5083331;28;20493;-68
2024/03/08 12:28:12;;;;;;;26.50;21.27;;;;;;;;;;5080096;28;20971;-68
2024/03/08 12:30:46;;;;;;;21.47;19.17;;;;;;;;;;5077900;28;20455;-67
2024/03/08 12:33:13;;;;;;;22.23;19.87;;;;;;;;;;5079264;28;20530;-67
2024/03/08 12:35:40;;;;;;;28.87;21.47;;;;;;;;;;5078683;28;20459;-72
2024/03/08 12:38:08;;;;;;;25.80;22.90;;;;;;;;;;5080044;28;20498;-72
2024/03/08 12:40:36;;;;;;;25.43;22.20;;;;;;;;;;5078968;28;20455;-73
2024/03/08 12:43:03;;;;;;;22.63;20.30;;;;;;;;;;5078431;28;20456;-73
2024/03/08 12:45:29;;;;;;;24.73;22.10;;;;;;;;;;5080336;28;20476;-70
2024/03/08 12:47:56;;;;;;;24.73;20.03;;;;;;;;;;5078360;28;20907;-74
2024/03/08 12:50:25;;;;;;;22.77;20.37;;;;;;;;;;5078490;28;20456;-71
2024/03/08 12:52:52;;;;;;;24.20;20.00;;;;;;;;;;5078805;28;20448;-73
2024/03/08 12:55:18;;;;;;;24.63;22.10;;;;;;;;;;5078587;28;20456;-71
2024/03/08 12:57:46;;;;;;;25.17;21.30;;;;;;;;;;5080627;28;20962;-73
2024/03/08 13:00:18;;;;;;;27.63;22.90;;;;;;;;;;5079882;28;20505;-72
2024/03/08 13:02:45;;;;;;;27.03;22.20;;;;;;;;;;5076284;28;21092;-72
2024/03/08 13:05:14;;;;;;;29.57;24.30;;;;;;;;;;5078666;28;20540;-71
2024/03/08 13:07:45;;;;;;;24.83;21.87;;;;;;;;;;5078553;28;20487;-73
2024/03/08 13:10:14;;;;;;;24.70;22.00;;;;;;;;;;5083731;28;20491;-73
2024/03/08 13:12:41;;;;;;;28.57;23.47;;;;;;;;;;5081864;28;20464;-73
2024/03/08 13:15:08;;;;;;;28.73;24.63;;;;;;;;;;5080010;28;20481;-72
2024/03/08 13:17:35;;;;;;;27.53;24.63;;;;;;;;;;5079293;28;20500;-72
2024/03/08 13:20:05;;;;;;;30.60;26.40;;;;;;;;;;5081524;28;20463;-71
2024/03/08 13:22:31;;;;;;;29.40;24.77;;;;;;;;;;5074213;28;20494;-72
2024/03/08 13:25:00;;;;;;;28.63;25.53;;;;;;;;;;5083182;28;20495;-71
2024/03/08 13:27:27;;;;;;;28.00;25.03;;;;;;;;;;5080533;28;20458;-71
2024/03/08 13:29:53;;;;;;;27.73;24.73;;;;;;;;;;5080499;28;20479;-72
2024/03/08 13:32:21;;;;;;;29.17;24.33;;;;;;;;;;5085019;28;20487;-73
2024/03/08 13:34:50;;;;;;;28.87;22.50;;;;;;;;;;5078487;28;20452;-73
2024/03/08 13:37:17;;;;;;;27.50;23.77;;;;;;;;;;5075699;28;20543;-72
2024/03/08 13:39:44;;;;;;;29.43;24.43;;;;;;;;;;5078853;28;20455;-73
2024/03/08 13:42:16;;;;;;;27.20;22.30;;;;;;;;;;5079793;28;20456;-72
2024/03/08 13:44:44;;;;;;;27.63;22.73;;;;;;;;;;5078413;28;20491;-73
2024/03/08 13:47:11;;;;;;;28.00;23.30;;;;;;;;;;5076951;28;20476;-67
2024/03/08 13:49:38;;;;;;;28.60;24.70;;;;;;;;;;5082308;28;20517;-73
2024/03/08 13:52:04;;;;;;;29.57;23.20;;;;;;;;;;5076784;28;20479;-73
2024/03/08 13:54:31;;;;;;;31.80;25.33;;;;;;;;;;5078608;28;21217;-71
2024/03/08 13:56:58;;;;;;;25.93;22.90;;;;;;;;;;5072824;28;20456;-71
2024/03/08 13:59:29;;;;;;;29.20;24.17;;;;;;;;;;5077762;28;20444;-72
2024/03/08 14:01:55;;;;;;;29.17;23.77;;;;;;;;;;5080005;28;20468;-72
2024/03/08 14:04:22;;;;;;;27.97;24.90;;;;;;;;;;5076149;28;20468;-70
2024/03/08 14:06:49;;;;;;;28.27;24.50;;;;;;;;;;5083682;28;20459;-70
2024/03/08 14:09:17;;;;;;;30.50;26.80;;;;;;;;;;5082799;28;20455;-70
2024/03/08 14:11:44;;;;;;;28.77;25.00;;;;;;;;;;5076371;28;20462;-72
2024/03/08 14:14:11;;;;;;;30.67;25.97;;;;;;;;;;5084749;28;20490;-71
2024/03/08 14:16:38;;;;;;;29.90;25.80;;;;;;;;;;5077442;28;20474;-70
2024/03/08 14:19:05;;;;;;;30.37;26.73;;;;;;;;;;5078001;28;20444;-70